sensor_id;sensor_type;location;lat;lon;timestamp;P1;durP1;ratioP1;P2;durP2;ratioP2
67889;SDS011;54685;52.082;5.426;2023-05-02T00:01:36;38.80;;;23.75;;
67889;SDS011;54685;52.082;5.426;2023-05-02T00:04:03;40.15;;;25.13;;
67889;SDS011;54685;52.082;5.426;2023-05-02T00:06:31;39.63;;;26.13;;
67889;SDS011;54685;52.082;5.426;2023-05-02T00:08:57;41.28;;;24.60;;
67889;SDS011;54685;52.082;5.426;2023-05-02T00:11:25;42.72;;;25.60;;
67889;SDS011;54685;52.082;5.426;2023-05-02T00:13:51;41.35;;;26.52;;
67889;SDS011;54685;52.082;5.426;2023-05-02T00:16:18;38.47;;;25.35;;
67889;SDS011;54685;52.082;5.426;2023-05-02T00:18:45;39.63;;;25.08;;
67889;SDS011;54685;52.082;5.426;2023-05-02T00:21:22;38.60;;;22.25;;
67889;SDS011;54685;52.082;5.426;2023-05-02T00:23:49;37.60;;;23.75;;
67889;SDS011;54685;52.082;5.426;2023-05-02T00:26:16;39.17;;;24.33;;
67889;SDS011;54685;52.082;5.426;2023-05-02T00:28:44;34.80;;;23.02;;
67889;SDS011;54685;52.082;5.426;2023-05-02T00:31:11;39.97;;;23.65;;
67889;SDS011;54685;52.082;5.426;2023-05-02T00:33:38;37.08;;;21.67;;
67889;SDS011;54685;52.082;5.426;2023-05-02T00:36:12;34.58;;;20.42;;
67889;SDS011;54685;52.082;5.426;2023-05-02T00:38:43;33.72;;;20.33;;
67889;SDS011;54685;52.082;5.426;2023-05-02T00:41:11;31.20;;;19.38;;
67889;SDS011;54685;52.082;5.426;2023-05-02T00:43:38;31.42;;;19.83;;
67889;SDS011;54685;52.082;5.426;2023-05-02T00:46:05;31.40;;;19.50;;
67889;SDS011;54685;52.082;5.426;2023-05-02T00:48:33;29.58;;;18.25;;
67889;SDS011;54685;52.082;5.426;2023-05-02T00:51:02;28.63;;;18.30;;
67889;SDS011;54685;52.082;5.426;2023-05-02T00:53:31;28.23;;;18.08;;
67889;SDS011;54685;52.082;5.426;2023-05-02T00:55:57;26.13;;;16.65;;
67889;SDS011;54685;52.082;5.426;2023-05-02T00:58:24;23.90;;;14.52;;
67889;SDS011;54685;52.082;5.426;2023-05-02T01:00:58;20.40;;;14.48;;
67889;SDS011;54685;52.082;5.426;2023-05-02T01:03:38;20.50;;;12.32;;
67889;SDS011;54685;52.082;5.426;2023-05-02T01:14:56;15.85;;;9.38;;
67889;SDS011;54685;52.082;5.426;2023-05-02T01:17:28;16.40;;;8.93;;
67889;SDS011;54685;52.082;5.426;2023-05-02T01:19:58;17.73;;;7.95;;
67889;SDS011;54685;52.082;5.426;2023-05-02T01:22:35;12.80;;;6.93;;
67889;SDS011;54685;52.082;5.426;2023-05-02T01:25:13;11.18;;;6.95;;
67889;SDS011;54685;52.082;5.426;2023-05-02T01:30:24;15.82;;;5.45;;
67889;SDS011;54685;52.082;5.426;2023-05-02T01:32:53;10.65;;;4.88;;
67889;SDS011;54685;52.082;5.426;2023-05-02T01:35:22;9.70;;;3.88;;
67889;SDS011;54685;52.082;5.426;2023-05-02T01:37:51;7.68;;;2.60;;
67889;SDS011;54685;52.082;5.426;2023-05-02T01:40:21;9.40;;;2.72;;
67889;SDS011;54685;52.082;5.426;2023-05-02T01:42:50;5.75;;;2.40;;
67889;SDS011;54685;52.082;5.426;2023-05-02T01:45:19;6.40;;;2.25;;
67889;SDS011;54685;52.082;5.426;2023-05-02T01:47:48;6.75;;;2.10;;
67889;SDS011;54685;52.082;5.426;2023-05-02T01:50:17;4.53;;;1.88;;
67889;SDS011;54685;52.082;5.426;2023-05-02T01:52:48;8.27;;;2.22;;
67889;SDS011;54685;52.082;5.426;2023-05-02T01:55:18;8.85;;;2.33;;
67889;SDS011;54685;52.082;5.426;2023-05-02T01:57:46;10.68;;;2.28;;
67889;SDS011;54685;52.082;5.426;2023-05-02T02:00:16;13.70;;;2.83;;
67889;SDS011;54685;52.082;5.426;2023-05-02T02:02:44;10.93;;;2.75;;
67889;SDS011;54685;52.082;5.426;2023-05-02T02:05:13;8.77;;;2.35;;
67889;SDS011;54685;52.082;5.426;2023-05-02T02:07:42;14.02;;;3.15;;
67889;SDS011;54685;52.082;5.426;2023-05-02T02:10:10;13.38;;;3.22;;
67889;SDS011;54685;52.082;5.426;2023-05-02T02:12:39;12.52;;;2.67;;
67889;SDS011;54685;52.082;5.426;2023-05-02T02:15:09;9.35;;;2.38;;
67889;SDS011;54685;52.082;5.426;2023-05-02T02:17:52;16.00;;;2.47;;
67889;SDS011;54685;52.082;5.426;2023-05-02T02:20:25;8.83;;;2.60;;
67889;SDS011;54685;52.082;5.426;2023-05-02T02:22:58;11.85;;;2.47;;
67889;SDS011;54685;52.082;5.426;2023-05-02T02:25:28;15.70;;;2.75;;
67889;SDS011;54685;52.082;5.426;2023-05-02T02:27:55;11.68;;;2.55;;
67889;SDS011;54685;52.082;5.426;2023-05-02T02:30:22;11.45;;;2.30;;
67889;SDS011;54685;52.082;5.426;2023-05-02T02:32:49;7.43;;;2.03;;
67889;SDS011;54685;52.082;5.426;2023-05-02T02:35:16;8.23;;;2.40;;
67889;SDS011;54685;52.082;5.426;2023-05-02T02:37:47;13.32;;;2.13;;
67889;SDS011;54685;52.082;5.426;2023-05-02T02:46:00;5.82;;;1.45;;
67889;SDS011;54685;52.082;5.426;2023-05-02T02:51:36;11.80;;;2.28;;
67889;SDS011;54685;52.082;5.426;2023-05-02T02:54:09;9.13;;;1.67;;
67889;SDS011;54685;52.082;5.426;2023-05-02T03:00:06;5.93;;;1.65;;
67889;SDS011;54685;52.082;5.426;2023-05-02T03:02:38;8.35;;;1.52;;
67889;SDS011;54685;52.082;5.426;2023-05-02T03:05:08;8.73;;;1.73;;
67889;SDS011;54685;52.082;5.426;2023-05-02T03:07:36;5.47;;;1.65;;
67889;SDS011;54685;52.082;5.426;2023-05-02T03:10:03;10.65;;;1.83;;
67889;SDS011;54685;52.082;5.426;2023-05-02T03:12:32;10.38;;;2.42;;
67889;SDS011;54685;52.082;5.426;2023-05-02T03:15:04;9.23;;;1.75;;
67889;SDS011;54685;52.082;5.426;2023-05-02T03:17:44;6.47;;;1.45;;
67889;SDS011;54685;52.082;5.426;2023-05-02T03:20:11;5.68;;;1.73;;
67889;SDS011;54685;52.082;5.426;2023-05-02T03:22:38;5.88;;;1.80;;
67889;SDS011;54685;52.082;5.426;2023-05-02T03:25:05;4.78;;;1.50;;
67889;SDS011;54685;52.082;5.426;2023-05-02T03:27:33;8.20;;;1.55;;
67889;SDS011;54685;52.082;5.426;2023-05-02T03:30:02;8.45;;;1.52;;
67889;SDS011;54685;52.082;5.426;2023-05-02T03:32:30;4.10;;;1.42;;
67889;SDS011;54685;52.082;5.426;2023-05-02T03:34:57;5.97;;;1.85;;
67889;SDS011;54685;52.082;5.426;2023-05-02T03:37:32;8.90;;;1.77;;
67889;SDS011;54685;52.082;5.426;2023-05-02T03:39:59;8.68;;;1.90;;
67889;SDS011;54685;52.082;5.426;2023-05-02T03:42:27;4.43;;;1.23;;
67889;SDS011;54685;52.082;5.426;2023-05-02T03:44:56;9.75;;;1.80;;
67889;SDS011;54685;52.082;5.426;2023-05-02T03:47:25;5.72;;;1.48;;
67889;SDS011;54685;52.082;5.426;2023-05-02T03:49:52;10.27;;;1.70;;
67889;SDS011;54685;52.082;5.426;2023-05-02T03:52:19;12.45;;;1.85;;
67889;SDS011;54685;52.082;5.426;2023-05-02T03:54:48;5.70;;;1.58;;
67889;SDS011;54685;52.082;5.426;2023-05-02T03:57:15;9.40;;;1.65;;
67889;SDS011;54685;52.082;5.426;2023-05-02T03:59:42;7.95;;;1.80;;
67889;SDS011;54685;52.082;5.426;2023-05-02T04:02:19;8.95;;;1.83;;
67889;SDS011;54685;52.082;5.426;2023-05-02T04:04:47;7.68;;;1.77;;
67889;SDS011;54685;52.082;5.426;2023-05-02T04:07:17;9.93;;;2.03;;
67889;SDS011;54685;52.082;5.426;2023-05-02T04:09:50;12.48;;;2.20;;
67889;SDS011;54685;52.082;5.426;2023-05-02T04:12:17;11.77;;;1.92;;
67889;SDS011;54685;52.082;5.426;2023-05-02T04:14:47;10.43;;;2.20;;
67889;SDS011;54685;52.082;5.426;2023-05-02T04:17:14;12.30;;;2.13;;
67889;SDS011;54685;52.082;5.426;2023-05-02T04:19:44;8.68;;;2.10;;
67889;SDS011;54685;52.082;5.426;2023-05-02T04:22:12;6.63;;;2.10;;
67889;SDS011;54685;52.082;5.426;2023-05-02T04:24:44;7.57;;;1.75;;
67889;SDS011;54685;52.082;5.426;2023-05-02T04:27:11;13.00;;;2.35;;
67889;SDS011;54685;52.082;5.426;2023-05-02T04:29:40;9.02;;;2.30;;
67889;SDS011;54685;52.082;5.426;2023-05-02T04:32:08;11.63;;;1.80;;
67889;SDS011;54685;52.082;5.426;2023-05-02T04:34:37;11.88;;;2.50;;
67889;SDS011;54685;52.082;5.426;2023-05-02T04:37:04;10.77;;;2.15;;
67889;SDS011;54685;52.082;5.426;2023-05-02T04:39:32;12.93;;;1.67;;
67889;SDS011;54685;52.082;5.426;2023-05-02T04:42:03;8.20;;;2.42;;
67889;SDS011;54685;52.082;5.426;2023-05-02T04:44:35;11.45;;;1.98;;
67889;SDS011;54685;52.082;5.426;2023-05-02T04:47:01;9.60;;;2.10;;
67889;SDS011;54685;52.082;5.426;2023-05-02T04:49:30;7.05;;;1.83;;
67889;SDS011;54685;52.082;5.426;2023-05-02T04:51:57;13.30;;;2.65;;
67889;SDS011;54685;52.082;5.426;2023-05-02T04:54:24;8.02;;;1.98;;
67889;SDS011;54685;52.082;5.426;2023-05-02T04:56:51;9.55;;;2.42;;
67889;SDS011;54685;52.082;5.426;2023-05-02T04:59:19;6.32;;;1.75;;
67889;SDS011;54685;52.082;5.426;2023-05-02T05:01:47;11.10;;;2.10;;
67889;SDS011;54685;52.082;5.426;2023-05-02T05:04:14;9.35;;;2.33;;
67889;SDS011;54685;52.082;5.426;2023-05-02T05:06:42;11.70;;;2.38;;
67889;SDS011;54685;52.082;5.426;2023-05-02T05:09:10;14.23;;;2.70;;
67889;SDS011;54685;52.082;5.426;2023-05-02T05:11:37;12.32;;;2.25;;
67889;SDS011;54685;52.082;5.426;2023-05-02T05:14:05;12.45;;;2.03;;
67889;SDS011;54685;52.082;5.426;2023-05-02T05:16:35;14.45;;;2.33;;
67889;SDS011;54685;52.082;5.426;2023-05-02T05:19:03;10.73;;;2.45;;
67889;SDS011;54685;52.082;5.426;2023-05-02T05:21:30;11.82;;;2.13;;
67889;SDS011;54685;52.082;5.426;2023-05-02T05:23:58;13.10;;;2.55;;
67889;SDS011;54685;52.082;5.426;2023-05-02T05:26:27;17.48;;;2.92;;
67889;SDS011;54685;52.082;5.426;2023-05-02T05:28:54;17.40;;;2.88;;
67889;SDS011;54685;52.082;5.426;2023-05-02T05:31:24;13.40;;;2.30;;
67889;SDS011;54685;52.082;5.426;2023-05-02T05:33:55;13.57;;;2.33;;
67889;SDS011;54685;52.082;5.426;2023-05-02T05:36:23;10.43;;;2.33;;
67889;SDS011;54685;52.082;5.426;2023-05-02T05:38:50;14.95;;;2.85;;
67889;SDS011;54685;52.082;5.426;2023-05-02T05:41:18;14.40;;;3.38;;
67889;SDS011;54685;52.082;5.426;2023-05-02T05:43:48;16.52;;;2.53;;
67889;SDS011;54685;52.082;5.426;2023-05-02T05:46:15;17.98;;;3.38;;
67889;SDS011;54685;52.082;5.426;2023-05-02T05:48:42;17.15;;;2.63;;
67889;SDS011;54685;52.082;5.426;2023-05-02T05:51:09;16.90;;;2.78;;
67889;SDS011;54685;52.082;5.426;2023-05-02T05:53:35;15.05;;;2.63;;
67889;SDS011;54685;52.082;5.426;2023-05-02T05:56:11;18.10;;;2.70;;
67889;SDS011;54685;52.082;5.426;2023-05-02T05:58:48;24.98;;;4.07;;
67889;SDS011;54685;52.082;5.426;2023-05-02T06:01:15;17.08;;;2.88;;
67889;SDS011;54685;52.082;5.426;2023-05-02T06:03:42;14.98;;;3.13;;
67889;SDS011;54685;52.082;5.426;2023-05-02T06:06:09;12.90;;;2.50;;
67889;SDS011;54685;52.082;5.426;2023-05-02T06:08:36;13.00;;;3.20;;
67889;SDS011;54685;52.082;5.426;2023-05-02T06:11:06;21.17;;;3.70;;
67889;SDS011;54685;52.082;5.426;2023-05-02T06:13:37;12.32;;;3.10;;
67889;SDS011;54685;52.082;5.426;2023-05-02T06:16:05;15.93;;;3.20;;
67889;SDS011;54685;52.082;5.426;2023-05-02T06:18:32;21.90;;;3.53;;
67889;SDS011;54685;52.082;5.426;2023-05-02T06:21:02;18.02;;;3.30;;
67889;SDS011;54685;52.082;5.426;2023-05-02T06:23:30;13.68;;;2.55;;
67889;SDS011;54685;52.082;5.426;2023-05-02T06:25:58;16.33;;;3.20;;
67889;SDS011;54685;52.082;5.426;2023-05-02T06:28:28;16.15;;;3.00;;
67889;SDS011;54685;52.082;5.426;2023-05-02T06:30:59;17.50;;;3.05;;
67889;SDS011;54685;52.082;5.426;2023-05-02T06:33:27;13.60;;;2.78;;
67889;SDS011;54685;52.082;5.426;2023-05-02T06:35:55;12.05;;;2.67;;
67889;SDS011;54685;52.082;5.426;2023-05-02T06:38:24;10.43;;;3.05;;
67889;SDS011;54685;52.082;5.426;2023-05-02T06:40:51;13.82;;;2.40;;
67889;SDS011;54685;52.082;5.426;2023-05-02T06:43:22;15.57;;;3.08;;
67889;SDS011;54685;52.082;5.426;2023-05-02T06:45:51;18.13;;;3.28;;
67889;SDS011;54685;52.082;5.426;2023-05-02T06:48:19;14.38;;;2.95;;
67889;SDS011;54685;52.082;5.426;2023-05-02T06:50:47;15.43;;;2.70;;
67889;SDS011;54685;52.082;5.426;2023-05-02T06:53:14;11.63;;;2.53;;
67889;SDS011;54685;52.082;5.426;2023-05-02T06:55:41;12.40;;;2.50;;
67889;SDS011;54685;52.082;5.426;2023-05-02T06:58:09;10.25;;;2.35;;
67889;SDS011;54685;52.082;5.426;2023-05-02T07:00:37;8.50;;;2.15;;
67889;SDS011;54685;52.082;5.426;2023-05-02T07:03:04;15.52;;;2.55;;
67889;SDS011;54685;52.082;5.426;2023-05-02T07:05:31;14.05;;;2.40;;
67889;SDS011;54685;52.082;5.426;2023-05-02T07:07:58;7.88;;;2.10;;
67889;SDS011;54685;52.082;5.426;2023-05-02T07:10:24;8.38;;;1.77;;
67889;SDS011;54685;52.082;5.426;2023-05-02T07:12:51;11.93;;;2.63;;
67889;SDS011;54685;52.082;5.426;2023-05-02T07:15:18;12.68;;;2.28;;
67889;SDS011;54685;52.082;5.426;2023-05-02T07:17:45;17.33;;;2.92;;
67889;SDS011;54685;52.082;5.426;2023-05-02T07:20:12;10.75;;;2.40;;
67889;SDS011;54685;52.082;5.426;2023-05-02T07:22:40;14.13;;;2.45;;
67889;SDS011;54685;52.082;5.426;2023-05-02T07:25:08;12.95;;;2.55;;
67889;SDS011;54685;52.082;5.426;2023-05-02T07:27:35;13.55;;;2.90;;
67889;SDS011;54685;52.082;5.426;2023-05-02T07:30:01;12.70;;;2.60;;
67889;SDS011;54685;52.082;5.426;2023-05-02T07:32:29;12.55;;;2.63;;
67889;SDS011;54685;52.082;5.426;2023-05-02T07:34:56;12.02;;;2.15;;
67889;SDS011;54685;52.082;5.426;2023-05-02T07:37:23;8.40;;;2.00;;
67889;SDS011;54685;52.082;5.426;2023-05-02T07:39:50;11.60;;;2.35;;
67889;SDS011;54685;52.082;5.426;2023-05-02T07:42:17;9.68;;;2.78;;
67889;SDS011;54685;52.082;5.426;2023-05-02T07:44:44;16.50;;;2.55;;
67889;SDS011;54685;52.082;5.426;2023-05-02T07:47:10;11.48;;;2.00;;
67889;SDS011;54685;52.082;5.426;2023-05-02T07:49:38;14.50;;;2.53;;
67889;SDS011;54685;52.082;5.426;2023-05-02T07:52:05;8.65;;;2.58;;
67889;SDS011;54685;52.082;5.426;2023-05-02T07:54:31;9.38;;;2.30;;
67889;SDS011;54685;52.082;5.426;2023-05-02T07:56:58;11.18;;;2.40;;
67889;SDS011;54685;52.082;5.426;2023-05-02T07:59:29;11.98;;;1.98;;
67889;SDS011;54685;52.082;5.426;2023-05-02T08:01:56;10.93;;;2.20;;
67889;SDS011;54685;52.082;5.426;2023-05-02T08:04:26;10.73;;;1.92;;
67889;SDS011;54685;52.082;5.426;2023-05-02T08:06:53;10.20;;;2.25;;
67889;SDS011;54685;52.082;5.426;2023-05-02T08:09:20;11.55;;;2.15;;
67889;SDS011;54685;52.082;5.426;2023-05-02T08:11:47;11.32;;;2.60;;
67889;SDS011;54685;52.082;5.426;2023-05-02T08:14:14;6.55;;;1.80;;
67889;SDS011;54685;52.082;5.426;2023-05-02T08:16:44;11.30;;;2.63;;
67889;SDS011;54685;52.082;5.426;2023-05-02T08:19:12;10.55;;;2.63;;
67889;SDS011;54685;52.082;5.426;2023-05-02T08:21:39;11.73;;;2.50;;
67889;SDS011;54685;52.082;5.426;2023-05-02T08:24:05;13.20;;;2.08;;
67889;SDS011;54685;52.082;5.426;2023-05-02T08:26:35;11.43;;;2.22;;
67889;SDS011;54685;52.082;5.426;2023-05-02T08:29:01;12.35;;;2.30;;
67889;SDS011;54685;52.082;5.426;2023-05-02T08:31:29;9.10;;;2.17;;
67889;SDS011;54685;52.082;5.426;2023-05-02T08:33:58;7.32;;;2.00;;
67889;SDS011;54685;52.082;5.426;2023-05-02T08:36:25;15.05;;;2.08;;
67889;SDS011;54685;52.082;5.426;2023-05-02T08:38:56;11.32;;;2.00;;
67889;SDS011;54685;52.082;5.426;2023-05-02T08:41:26;10.38;;;2.10;;
67889;SDS011;54685;52.082;5.426;2023-05-02T08:43:54;7.38;;;1.70;;
67889;SDS011;54685;52.082;5.426;2023-05-02T08:46:22;11.45;;;1.77;;
67889;SDS011;54685;52.082;5.426;2023-05-02T08:48:49;6.57;;;1.77;;
67889;SDS011;54685;52.082;5.426;2023-05-02T08:51:17;12.65;;;2.28;;
67889;SDS011;54685;52.082;5.426;2023-05-02T08:53:45;8.63;;;1.58;;
67889;SDS011;54685;52.082;5.426;2023-05-02T08:56:12;6.25;;;1.48;;
67889;SDS011;54685;52.082;5.426;2023-05-02T08:58:39;8.38;;;1.52;;
67889;SDS011;54685;52.082;5.426;2023-05-02T09:01:08;9.88;;;1.60;;
67889;SDS011;54685;52.082;5.426;2023-05-02T09:03:38;5.73;;;1.70;;
67889;SDS011;54685;52.082;5.426;2023-05-02T09:06:09;3.95;;;0.98;;
67889;SDS011;54685;52.082;5.426;2023-05-02T09:08:44;5.55;;;1.65;;
67889;SDS011;54685;52.082;5.426;2023-05-02T09:11:11;7.60;;;1.90;;
67889;SDS011;54685;52.082;5.426;2023-05-02T09:13:39;6.47;;;1.67;;
67889;SDS011;54685;52.082;5.426;2023-05-02T09:16:11;8.35;;;1.48;;
67889;SDS011;54685;52.082;5.426;2023-05-02T09:18:47;6.03;;;1.60;;
67889;SDS011;54685;52.082;5.426;2023-05-02T09:21:22;4.05;;;1.48;;
67889;SDS011;54685;52.082;5.426;2023-05-02T09:23:54;6.28;;;1.55;;
67889;SDS011;54685;52.082;5.426;2023-05-02T09:26:23;6.70;;;1.30;;
67889;SDS011;54685;52.082;5.426;2023-05-02T09:28:57;6.47;;;1.77;;
67889;SDS011;54685;52.082;5.426;2023-05-02T09:31:28;8.05;;;1.55;;
67889;SDS011;54685;52.082;5.426;2023-05-02T09:34:19;5.78;;;1.27;;
67889;SDS011;54685;52.082;5.426;2023-05-02T09:36:46;4.63;;;1.50;;
67889;SDS011;54685;52.082;5.426;2023-05-02T09:39:25;10.05;;;1.77;;
67889;SDS011;54685;52.082;5.426;2023-05-02T09:41:54;5.25;;;1.27;;
67889;SDS011;54685;52.082;5.426;2023-05-02T09:44:22;4.57;;;1.20;;
67889;SDS011;54685;52.082;5.426;2023-05-02T09:46:55;4.70;;;1.27;;
67889;SDS011;54685;52.082;5.426;2023-05-02T09:49:37;4.95;;;1.10;;
67889;SDS011;54685;52.082;5.426;2023-05-02T09:52:11;3.78;;;1.33;;
67889;SDS011;54685;52.082;5.426;2023-05-02T09:54:43;5.53;;;1.10;;
67889;SDS011;54685;52.082;5.426;2023-05-02T09:57:12;5.20;;;1.50;;
67889;SDS011;54685;52.082;5.426;2023-05-02T09:59:52;6.30;;;1.50;;
67889;SDS011;54685;52.082;5.426;2023-05-02T10:02:24;7.32;;;1.60;;
67889;SDS011;54685;52.082;5.426;2023-05-02T10:04:52;6.88;;;1.42;;
67889;SDS011;54685;52.082;5.426;2023-05-02T10:07:21;4.20;;;1.55;;
67889;SDS011;54685;52.082;5.426;2023-05-02T10:09:48;4.93;;;1.42;;
67889;SDS011;54685;52.082;5.426;2023-05-02T10:12:19;5.10;;;1.33;;
67889;SDS011;54685;52.082;5.426;2023-05-02T10:14:56;6.35;;;1.65;;
67889;SDS011;54685;52.082;5.426;2023-05-02T10:17:27;9.43;;;1.80;;
67889;SDS011;54685;52.082;5.426;2023-05-02T10:20:02;9.02;;;1.75;;
67889;SDS011;54685;52.082;5.426;2023-05-02T10:22:32;4.00;;;1.77;;
67889;SDS011;54685;52.082;5.426;2023-05-02T10:24:59;6.25;;;1.67;;
67889;SDS011;54685;52.082;5.426;2023-05-02T10:27:29;12.20;;;2.15;;
67889;SDS011;54685;52.082;5.426;2023-05-02T10:29:57;5.88;;;1.90;;
67889;SDS011;54685;52.082;5.426;2023-05-02T10:32:27;7.70;;;2.15;;
67889;SDS011;54685;52.082;5.426;2023-05-02T10:34:55;7.00;;;2.05;;
67889;SDS011;54685;52.082;5.426;2023-05-02T10:37:23;7.97;;;1.85;;
67889;SDS011;54685;52.082;5.426;2023-05-02T10:39:51;6.00;;;1.90;;
67889;SDS011;54685;52.082;5.426;2023-05-02T10:42:19;7.13;;;2.00;;
67889;SDS011;54685;52.082;5.426;2023-05-02T10:44:46;7.72;;;2.10;;
67889;SDS011;54685;52.082;5.426;2023-05-02T10:49:50;11.13;;;1.85;;
67889;SDS011;54685;52.082;5.426;2023-05-02T10:52:33;6.65;;;2.13;;
67889;SDS011;54685;52.082;5.426;2023-05-02T10:55:12;8.00;;;1.95;;
67889;SDS011;54685;52.082;5.426;2023-05-02T11:00:29;5.70;;;1.80;;
67889;SDS011;54685;52.082;5.426;2023-05-02T11:02:59;6.00;;;1.98;;
67889;SDS011;54685;52.082;5.426;2023-05-02T11:05:26;4.68;;;1.95;;
67889;SDS011;54685;52.082;5.426;2023-05-02T11:10:45;8.15;;;2.08;;
67889;SDS011;54685;52.082;5.426;2023-05-02T11:13:12;9.05;;;1.88;;
67889;SDS011;54685;52.082;5.426;2023-05-02T11:18:09;3.92;;;1.75;;
67889;SDS011;54685;52.082;5.426;2023-05-02T11:28:38;11.82;;;2.20;;
67889;SDS011;54685;52.082;5.426;2023-05-02T11:31:05;6.68;;;2.05;;
67889;SDS011;54685;52.082;5.426;2023-05-02T11:33:36;5.80;;;2.08;;
67889;SDS011;54685;52.082;5.426;2023-05-02T11:36:02;7.07;;;2.28;;
67889;SDS011;54685;52.082;5.426;2023-05-02T11:38:34;7.82;;;2.30;;
67889;SDS011;54685;52.082;5.426;2023-05-02T11:41:02;9.52;;;2.70;;
67889;SDS011;54685;52.082;5.426;2023-05-02T11:43:29;9.43;;;2.35;;
67889;SDS011;54685;52.082;5.426;2023-05-02T11:45:58;5.53;;;2.30;;
67889;SDS011;54685;52.082;5.426;2023-05-02T11:48:25;8.20;;;2.42;;
67889;SDS011;54685;52.082;5.426;2023-05-02T11:53:22;7.43;;;2.40;;
67889;SDS011;54685;52.082;5.426;2023-05-02T11:55:55;9.15;;;2.30;;
67889;SDS011;54685;52.082;5.426;2023-05-02T11:58:23;7.63;;;2.50;;
67889;SDS011;54685;52.082;5.426;2023-05-02T12:00:51;9.77;;;2.95;;
67889;SDS011;54685;52.082;5.426;2023-05-02T12:05:47;10.80;;;2.40;;
67889;SDS011;54685;52.082;5.426;2023-05-02T12:08:26;7.47;;;2.65;;
67889;SDS011;54685;52.082;5.426;2023-05-02T12:10:54;12.93;;;2.95;;
67889;SDS011;54685;52.082;5.426;2023-05-02T12:13:22;5.22;;;2.42;;
67889;SDS011;54685;52.082;5.426;2023-05-02T12:15:50;9.82;;;3.28;;
67889;SDS011;54685;52.082;5.426;2023-05-02T12:18:19;11.20;;;2.88;;
67889;SDS011;54685;52.082;5.426;2023-05-02T12:20:49;9.13;;;2.42;;
67889;SDS011;54685;52.082;5.426;2023-05-02T12:23:20;12.07;;;2.78;;
67889;SDS011;54685;52.082;5.426;2023-05-02T12:28:16;8.90;;;2.45;;
67889;SDS011;54685;52.082;5.426;2023-05-02T12:30:46;12.00;;;2.75;;
67889;SDS011;54685;52.082;5.426;2023-05-02T12:33:14;8.95;;;3.00;;
67889;SDS011;54685;52.082;5.426;2023-05-02T12:35:42;15.65;;;3.00;;
67889;SDS011;54685;52.082;5.426;2023-05-02T12:38:13;11.32;;;2.72;;
67889;SDS011;54685;52.082;5.426;2023-05-02T12:40:50;10.75;;;3.15;;
67889;SDS011;54685;52.082;5.426;2023-05-02T12:43:21;7.72;;;2.60;;
67889;SDS011;54685;52.082;5.426;2023-05-02T12:45:48;10.20;;;2.70;;
67889;SDS011;54685;52.082;5.426;2023-05-02T12:48:25;8.15;;;2.58;;
67889;SDS011;54685;52.082;5.426;2023-05-02T12:50:53;6.95;;;2.70;;
67889;SDS011;54685;52.082;5.426;2023-05-02T12:53:39;11.82;;;2.75;;
67889;SDS011;54685;52.082;5.426;2023-05-02T12:56:07;9.27;;;2.53;;
67889;SDS011;54685;52.082;5.426;2023-05-02T12:58:45;8.40;;;2.28;;
67889;SDS011;54685;52.082;5.426;2023-05-02T13:01:13;10.23;;;2.67;;
67889;SDS011;54685;52.082;5.426;2023-05-02T13:03:41;10.65;;;2.83;;
67889;SDS011;54685;52.082;5.426;2023-05-02T13:06:10;7.70;;;2.47;;
67889;SDS011;54685;52.082;5.426;2023-05-02T13:08:36;8.25;;;2.35;;
67889;SDS011;54685;52.082;5.426;2023-05-02T13:11:03;7.07;;;2.50;;
67889;SDS011;54685;52.082;5.426;2023-05-02T13:13:30;9.25;;;2.65;;
67889;SDS011;54685;52.082;5.426;2023-05-02T13:15:58;9.30;;;2.40;;
67889;SDS011;54685;52.082;5.426;2023-05-02T13:18:25;8.95;;;2.97;;
67889;SDS011;54685;52.082;5.426;2023-05-02T13:20:53;9.80;;;2.70;;
67889;SDS011;54685;52.082;5.426;2023-05-02T13:23:20;8.88;;;2.80;;
67889;SDS011;54685;52.082;5.426;2023-05-02T13:25:47;10.90;;;2.25;;
67889;SDS011;54685;52.082;5.426;2023-05-02T13:28:14;8.52;;;2.80;;
67889;SDS011;54685;52.082;5.426;2023-05-02T13:30:40;10.95;;;2.30;;
67889;SDS011;54685;52.082;5.426;2023-05-02T13:33:07;8.35;;;2.88;;
67889;SDS011;54685;52.082;5.426;2023-05-02T13:35:34;9.68;;;2.50;;
67889;SDS011;54685;52.082;5.426;2023-05-02T13:38:01;8.50;;;2.17;;
67889;SDS011;54685;52.082;5.426;2023-05-02T13:40:28;4.22;;;1.95;;
67889;SDS011;54685;52.082;5.426;2023-05-02T13:42:55;6.57;;;2.30;;
67889;SDS011;54685;52.082;5.426;2023-05-02T13:45:25;8.88;;;2.20;;
67889;SDS011;54685;52.082;5.426;2023-05-02T13:47:52;10.57;;;2.72;;
67889;SDS011;54685;52.082;5.426;2023-05-02T13:50:18;6.88;;;2.10;;
67889;SDS011;54685;52.082;5.426;2023-05-02T13:52:45;9.68;;;2.13;;
67889;SDS011;54685;52.082;5.426;2023-05-02T13:55:14;9.07;;;2.00;;
67889;SDS011;54685;52.082;5.426;2023-05-02T13:57:41;11.48;;;2.20;;
67889;SDS011;54685;52.082;5.426;2023-05-02T14:00:08;7.05;;;2.13;;
67889;SDS011;54685;52.082;5.426;2023-05-02T14:02:35;6.18;;;2.10;;
67889;SDS011;54685;52.082;5.426;2023-05-02T14:05:03;7.95;;;2.08;;
67889;SDS011;54685;52.082;5.426;2023-05-02T14:07:30;6.47;;;1.90;;
67889;SDS011;54685;52.082;5.426;2023-05-02T14:09:57;6.97;;;1.80;;
67889;SDS011;54685;52.082;5.426;2023-05-02T14:12:24;7.68;;;2.65;;
67889;SDS011;54685;52.082;5.426;2023-05-02T14:14:50;8.60;;;2.17;;
67889;SDS011;54685;52.082;5.426;2023-05-02T14:17:17;8.02;;;1.90;;
67889;SDS011;54685;52.082;5.426;2023-05-02T14:19:44;5.93;;;1.92;;
67889;SDS011;54685;52.082;5.426;2023-05-02T14:22:11;7.63;;;1.88;;
67889;SDS011;54685;52.082;5.426;2023-05-02T14:24:38;8.07;;;2.20;;
67889;SDS011;54685;52.082;5.426;2023-05-02T14:27:04;11.85;;;2.15;;
67889;SDS011;54685;52.082;5.426;2023-05-02T14:29:33;7.97;;;1.80;;
67889;SDS011;54685;52.082;5.426;2023-05-02T14:32:01;7.03;;;1.73;;
67889;SDS011;54685;52.082;5.426;2023-05-02T14:34:31;4.40;;;1.58;;
67889;SDS011;54685;52.082;5.426;2023-05-02T14:37:00;5.85;;;2.05;;
67889;SDS011;54685;52.082;5.426;2023-05-02T14:39:27;8.20;;;1.80;;
67889;SDS011;54685;52.082;5.426;2023-05-02T14:41:54;7.75;;;2.05;;
67889;SDS011;54685;52.082;5.426;2023-05-02T14:44:20;7.55;;;2.25;;
67889;SDS011;54685;52.082;5.426;2023-05-02T14:46:47;4.65;;;1.50;;
67889;SDS011;54685;52.082;5.426;2023-05-02T14:49:14;4.53;;;1.63;;
67889;SDS011;54685;52.082;5.426;2023-05-02T14:51:44;5.15;;;1.67;;
67889;SDS011;54685;52.082;5.426;2023-05-02T14:54:12;7.93;;;2.00;;
67889;SDS011;54685;52.082;5.426;2023-05-02T14:56:41;8.93;;;2.15;;
67889;SDS011;54685;52.082;5.426;2023-05-02T14:59:09;7.57;;;2.10;;
67889;SDS011;54685;52.082;5.426;2023-05-02T15:01:35;6.88;;;1.60;;
67889;SDS011;54685;52.082;5.426;2023-05-02T15:04:02;8.60;;;1.80;;
67889;SDS011;54685;52.082;5.426;2023-05-02T15:06:33;5.35;;;1.65;;
67889;SDS011;54685;52.082;5.426;2023-05-02T15:09:01;3.72;;;1.55;;
67889;SDS011;54685;52.082;5.426;2023-05-02T15:11:28;5.45;;;1.48;;
67889;SDS011;54685;52.082;5.426;2023-05-02T15:13:56;5.70;;;1.58;;
67889;SDS011;54685;52.082;5.426;2023-05-02T15:16:25;5.35;;;1.63;;
67889;SDS011;54685;52.082;5.426;2023-05-02T15:18:55;5.78;;;1.80;;
67889;SDS011;54685;52.082;5.426;2023-05-02T15:21:22;7.30;;;1.70;;
67889;SDS011;54685;52.082;5.426;2023-05-02T15:23:48;4.28;;;1.90;;
67889;SDS011;54685;52.082;5.426;2023-05-02T15:26:15;10.07;;;2.10;;
67889;SDS011;54685;52.082;5.426;2023-05-02T15:28:42;5.70;;;1.50;;
67889;SDS011;54685;52.082;5.426;2023-05-02T15:31:09;3.83;;;1.70;;
67889;SDS011;54685;52.082;5.426;2023-05-02T15:33:36;10.98;;;1.73;;
67889;SDS011;54685;52.082;5.426;2023-05-02T15:36:03;6.22;;;2.05;;
67889;SDS011;54685;52.082;5.426;2023-05-02T15:38:30;6.53;;;1.70;;
67889;SDS011;54685;52.082;5.426;2023-05-02T15:40:59;3.45;;;1.55;;